createdAt,value
2023-02-04T00:00:38.983Z,1.70
2023-02-04T00:03:07.488Z,1.60
2023-02-04T00:05:37.127Z,1.27
2023-02-04T00:08:05.243Z,1.67
2023-02-04T00:10:34.042Z,2.45
2023-02-04T00:13:02.216Z,1.67
2023-02-04T00:15:30.420Z,2.28
2023-02-04T00:17:58.522Z,2.88
2023-02-04T00:20:26.618Z,1.98
2023-02-04T00:22:57.258Z,2.17
2023-02-04T00:25:25.520Z,5.10
2023-02-04T00:27:53.796Z,2.10
2023-02-04T00:30:22.124Z,2.70
2023-02-04T00:32:54.685Z,4.13
2023-02-04T00:35:22.807Z,2.97
2023-02-04T00:37:51.018Z,3.42
2023-02-04T00:40:20.919Z,3.22
2023-02-04T00:42:48.917Z,3.42
2023-02-04T00:45:16.928Z,3.75
2023-02-04T00:47:44.973Z,4.18
2023-02-04T00:50:13.003Z,3.25
2023-02-04T00:52:41.140Z,4.47
2023-02-04T00:55:10.472Z,3.30
2023-02-04T00:57:40.202Z,4.93
2023-02-04T01:00:09.690Z,3.55
2023-02-04T01:02:37.758Z,4.00
2023-02-04T01:05:06.100Z,5.15
2023-02-04T01:07:34.309Z,3.67
2023-02-04T01:10:02.366Z,5.68
2023-02-04T01:12:30.387Z,5.82
2023-02-04T01:15:00.210Z,5.25
2023-02-04T01:17:28.259Z,6.22
2023-02-04T01:19:56.327Z,7.13
2023-02-04T01:22:24.396Z,8.52
2023-02-04T01:24:52.439Z,7.15
2023-02-04T01:27:20.556Z,6.35
2023-02-04T01:29:48.639Z,7.68
2023-02-04T01:32:18.167Z,7.85
2023-02-04T01:34:46.362Z,9.90
2023-02-04T01:37:14.528Z,9.18
2023-02-04T01:39:42.556Z,10.38
2023-02-04T01:42:10.950Z,10.57
2023-02-04T01:44:39.520Z,11.10
2023-02-04T01:47:07.860Z,10.52
2023-02-04T01:49:37.448Z,12.65
2023-02-04T01:52:06.159Z,13.52
2023-02-04T01:54:34.443Z,11.70
2023-02-04T01:57:03.172Z,10.50
2023-02-04T01:59:31.251Z,12.32
2023-02-04T02:01:59.367Z,11.85
2023-02-04T02:04:31.780Z,10.60
2023-02-04T02:07:03.562Z,11.98
2023-02-04T02:09:33.676Z,11.32
2023-02-04T02:12:04.428Z,10.18
2023-02-04T02:14:32.643Z,12.23
2023-02-04T02:17:01.075Z,12.65
2023-02-04T02:19:34.861Z,13.82
2023-02-04T02:22:12.591Z,10.68
2023-02-04T02:24:42.067Z,11.10
2023-02-04T02:27:12.772Z,11.02
2023-02-04T02:29:43.643Z,10.98
2023-02-04T02:32:13.786Z,10.38
2023-02-04T02:34:43.335Z,11.18
2023-02-04T02:37:11.876Z,10.88
2023-02-04T02:39:44.557Z,10.90
2023-02-04T02:42:16.110Z,10.60
2023-02-04T02:44:45.410Z,10.98
2023-02-04T02:47:16.789Z,11.60
2023-02-04T02:49:45.768Z,10.50
2023-02-04T02:52:14.557Z,10.68
2023-02-04T02:54:44.228Z,12.27
2023-02-04T02:57:14.870Z,10.25
2023-02-04T02:59:43.522Z,10.55
2023-02-04T03:02:13.914Z,11.60
2023-02-04T03:04:45.532Z,10.98
2023-02-04T03:07:15.697Z,8.52
2023-02-04T03:09:45.188Z,9.40
2023-02-04T03:12:13.605Z,8.70
2023-02-04T03:14:42.098Z,10.88
2023-02-04T03:17:12.540Z,8.43
2023-02-04T03:19:41.427Z,9.48
2023-02-04T03:22:10.400Z,9.85
2023-02-04T03:24:38.877Z,9.40
2023-02-04T03:27:08.840Z,10.07
2023-02-04T03:29:44.277Z,10.75
2023-02-04T03:32:12.593Z,11.05
2023-02-04T03:34:40.761Z,11.00
2023-02-04T03:37:09.379Z,10.60
2023-02-04T03:39:37.595Z,10.38
2023-02-04T03:42:05.844Z,10.82
2023-02-04T03:44:35.262Z,11.20
2023-02-04T03:47:03.313Z,8.95
2023-02-04T03:49:32.317Z,10.32
2023-02-04T03:52:00.543Z,9.48
2023-02-04T03:54:28.579Z,9.57
2023-02-04T03:56:56.650Z,12.05
2023-02-04T03:59:24.844Z,10.43
2023-02-04T04:01:54.261Z,11.48
2023-02-04T04:04:22.524Z,11.43
2023-02-04T04:06:50.786Z,11.05
2023-02-04T04:09:18.917Z,11.82
2023-02-04T04:11:46.962Z,14.02
2023-02-04T04:14:14.947Z,11.70
2023-02-04T04:16:43.044Z,10.68
2023-02-04T04:19:12.419Z,11.52
2023-02-04T04:21:40.610Z,10.95
2023-02-04T04:24:08.896Z,11.30
2023-02-04T04:26:37.160Z,11.38
2023-02-04T04:29:05.402Z,11.15
2023-02-04T04:31:33.633Z,12.77
2023-02-04T04:34:02.674Z,13.75
2023-02-04T04:36:32.205Z,11.48
2023-02-04T04:39:00.335Z,13.32
2023-02-04T04:41:28.351Z,11.48
2023-02-04T04:43:56.380Z,12.40
2023-02-04T04:46:24.577Z,13.25
2023-02-04T04:48:52.847Z,12.50
2023-02-04T04:51:20.974Z,14.00
2023-02-04T04:53:50.489Z,13.07
2023-02-04T04:56:19.272Z,12.65
2023-02-04T04:58:47.365Z,14.10
2023-02-04T05:01:15.494Z,15.70
2023-02-04T05:03:43.700Z,13.20
2023-02-04T05:06:13.123Z,14.88
2023-02-04T05:08:41.266Z,15.38
2023-02-04T05:11:10.797Z,14.43
2023-02-04T05:13:38.942Z,17.95
2023-02-04T05:16:07.453Z,15.70
2023-02-04T05:18:35.528Z,16.13
2023-02-04T05:21:03.766Z,20.27
2023-02-04T05:23:31.965Z,19.00
2023-02-04T05:26:00.004Z,16.17
2023-02-04T05:28:29.520Z,17.38
2023-02-04T05:30:57.679Z,20.52
2023-02-04T05:33:25.871Z,19.77
2023-02-04T05:35:53.978Z,14.55
2023-02-04T05:38:22.083Z,15.63
2023-02-04T05:40:50.289Z,16.88
2023-02-04T05:43:18.399Z,14.15
2023-02-04T05:45:48.080Z,16.83
2023-02-04T05:48:16.178Z,15.02
2023-02-04T05:50:44.226Z,15.20
2023-02-04T05:53:12.358Z,13.80
2023-02-04T05:55:40.508Z,17.85
2023-02-04T05:58:08.736Z,13.85
2023-02-04T06:00:36.777Z,17.70
2023-02-04T06:03:06.361Z,17.02
2023-02-04T06:05:34.711Z,28.52
2023-02-04T06:08:02.878Z,29.50
2023-02-04T06:10:31.300Z,20.65
2023-02-04T06:12:59.765Z,18.27
2023-02-04T06:15:27.785Z,16.33
2023-02-04T06:17:55.893Z,18.23
2023-02-04T06:20:25.349Z,18.02
2023-02-04T06:22:54.620Z,17.52
2023-02-04T06:25:23.305Z,81.82
2023-02-04T06:27:51.912Z,40.90
2023-02-04T06:30:20.625Z,14.95
2023-02-04T06:32:48.664Z,15.15
2023-02-04T06:35:16.928Z,13.23
2023-02-04T06:37:46.500Z,12.68
2023-02-04T06:40:14.830Z,14.48
2023-02-04T06:42:42.887Z,12.55
2023-02-04T06:45:11.394Z,12.05
2023-02-04T06:47:39.416Z,12.63
2023-02-04T06:50:08.237Z,13.40
2023-02-04T06:52:37.332Z,16.85
2023-02-04T06:55:07.385Z,17.55
2023-02-04T06:57:35.538Z,17.73
2023-02-04T07:00:03.691Z,15.43
2023-02-04T07:02:31.787Z,16.13
2023-02-04T07:05:00.861Z,15.70
2023-02-04T07:07:29.108Z,16.55
2023-02-04T07:09:57.177Z,15.23
2023-02-04T07:12:26.701Z,14.13
2023-02-04T07:14:54.747Z,13.52
2023-02-04T07:17:23.088Z,15.93
2023-02-04T07:19:51.240Z,13.65
2023-02-04T07:22:19.291Z,12.45
2023-02-04T07:24:47.732Z,13.00
2023-02-04T07:27:15.977Z,12.90
2023-02-04T07:29:45.432Z,12.77
2023-02-04T07:32:13.776Z,14.43
2023-02-04T07:34:41.886Z,16.08
2023-02-04T07:37:10.023Z,12.82
2023-02-04T07:39:38.262Z,11.05
2023-02-04T07:42:08.485Z,11.68
2023-02-04T07:44:37.587Z,10.25
2023-02-04T07:47:07.309Z,11.45
2023-02-04T07:49:35.400Z,9.38
2023-02-04T07:52:03.573Z,15.10
2023-02-04T07:54:31.764Z,12.02
2023-02-04T07:56:59.861Z,13.10
2023-02-04T07:59:27.964Z,11.10
2023-02-04T08:01:56.076Z,16.15
2023-02-04T08:04:25.632Z,9.98
2023-02-04T08:06:53.768Z,10.85
2023-02-04T08:09:21.871Z,10.90
2023-02-04T08:11:49.990Z,12.50
2023-02-04T08:14:18.180Z,8.68
2023-02-04T08:16:46.155Z,13.02
2023-02-04T08:19:18.970Z,10.93
2023-02-04T08:21:49.512Z,11.90
2023-02-04T08:24:18.558Z,9.60
2023-02-04T08:26:46.691Z,11.35
2023-02-04T08:29:14.733Z,9.93
2023-02-04T08:31:42.882Z,10.73
2023-02-04T08:34:13.831Z,9.57
2023-02-04T08:36:41.928Z,9.55
2023-02-04T08:39:12.454Z,9.25
2023-02-04T08:41:40.656Z,10.93
2023-02-04T08:44:08.905Z,11.27
2023-02-04T08:46:37.415Z,12.05
2023-02-04T08:49:05.565Z,10.93
2023-02-04T08:51:33.635Z,11.18
2023-02-04T08:54:01.747Z,9.85
2023-02-04T08:56:31.503Z,10.02
2023-02-04T08:58:59.522Z,11.63
2023-02-04T09:01:27.534Z,10.18
2023-02-04T09:03:55.653Z,9.63
2023-02-04T09:06:23.939Z,11.02
2023-02-04T09:08:52.030Z,11.00
2023-02-04T09:11:20.304Z,13.32
2023-02-04T09:13:49.679Z,11.30
2023-02-04T09:16:18.718Z,14.50
2023-02-04T09:18:46.827Z,13.68
2023-02-04T09:21:14.915Z,15.75
2023-02-04T09:23:42.931Z,14.00
2023-02-04T09:26:11.025Z,14.43
2023-02-04T09:28:39.469Z,13.52
2023-02-04T09:31:09.073Z,17.85
2023-02-04T09:33:38.626Z,12.82
2023-02-04T09:36:09.147Z,12.55
2023-02-04T09:38:38.027Z,17.38
2023-02-04T09:41:09.304Z,13.55
2023-02-04T09:43:41.637Z,15.75
2023-02-04T09:46:19.584Z,15.38
2023-02-04T09:48:47.902Z,10.27
2023-02-04T09:51:19.543Z,16.50
2023-02-04T09:53:50.274Z,16.48
2023-02-04T09:56:22.457Z,14.52
2023-02-04T09:58:50.936Z,14.00
2023-02-04T10:01:21.603Z,12.25
2023-02-04T10:03:51.633Z,13.45
2023-02-04T10:06:22.118Z,10.43
2023-02-04T10:08:52.111Z,11.88
2023-02-04T10:11:22.213Z,14.57
2023-02-04T10:13:52.511Z,11.48
2023-02-04T10:16:29.895Z,13.90
2023-02-04T10:18:59.611Z,11.65
2023-02-04T10:21:30.074Z,13.63
2023-02-04T10:23:59.893Z,10.43
2023-02-04T10:26:29.982Z,12.57
2023-02-04T10:29:02.362Z,9.68
2023-02-04T10:31:34.627Z,9.65
2023-02-04T10:34:12.726Z,9.82
2023-02-04T10:36:41.482Z,8.38
2023-02-04T10:39:14.004Z,11.23
2023-02-04T10:41:49.601Z,11.07
2023-02-04T10:44:19.912Z,11.52
2023-02-04T10:46:49.617Z,12.45
2023-02-04T10:49:23.123Z,9.57
2023-02-04T10:51:52.948Z,9.00
2023-02-04T10:54:31.069Z,11.15
2023-02-04T10:57:01.124Z,9.25
2023-02-04T10:59:30.020Z,8.77
2023-02-04T11:02:01.951Z,8.77
2023-02-04T11:04:30.310Z,13.80
2023-02-04T11:06:58.434Z,8.27
2023-02-04T11:09:26.637Z,6.15
2023-02-04T11:11:54.668Z,8.07
2023-02-04T11:14:32.001Z,5.90
2023-02-04T11:17:03.450Z,8.88
2023-02-04T11:19:36.726Z,7.60
2023-02-04T11:22:21.987Z,11.82
2023-02-04T11:24:50.992Z,9.48
2023-02-04T11:27:24.955Z,11.07
2023-02-04T11:29:53.202Z,9.05
2023-02-04T11:32:35.578Z,10.13
2023-02-04T11:35:24.699Z,9.23
2023-02-04T11:37:55.599Z,11.02
2023-02-04T11:40:30.476Z,9.98
2023-02-04T11:43:03.512Z,9.40
2023-02-04T11:45:35.059Z,8.27
2023-02-04T11:48:13.048Z,14.98
2023-02-04T11:50:41.854Z,8.35
2023-02-04T11:53:12.227Z,8.93
2023-02-04T11:55:47.549Z,8.05
2023-02-04T11:58:17.760Z,10.43
2023-02-04T12:00:46.552Z,9.43
2023-02-04T12:03:26.082Z,10.70
2023-02-04T12:05:56.151Z,15.20
2023-02-04T12:08:33.181Z,11.43
2023-02-04T12:11:06.459Z,9.85
2023-02-04T12:13:35.875Z,10.07
2023-02-04T12:16:05.856Z,8.98
2023-02-04T12:18:36.546Z,11.50
2023-02-04T12:21:05.009Z,13.35
2023-02-04T12:23:33.072Z,10.93
2023-02-04T12:26:01.146Z,10.50
2023-02-04T12:28:29.717Z,10.98
2023-02-04T12:30:58.044Z,11.93
2023-02-04T12:33:26.281Z,8.15
2023-02-04T12:35:55.844Z,14.60
2023-02-04T12:38:23.908Z,10.82
2023-02-04T12:40:52.161Z,12.23
2023-02-04T12:43:20.276Z,10.20
2023-02-04T12:45:50.104Z,10.13
2023-02-04T12:48:18.593Z,10.10
2023-02-04T12:50:46.726Z,9.35
2023-02-04T12:53:16.554Z,7.95
2023-02-04T12:55:44.622Z,7.95
2023-02-04T12:58:12.821Z,11.60
2023-02-04T13:00:42.341Z,9.10
2023-02-04T13:03:10.345Z,12.18
2023-02-04T13:05:38.468Z,11.60
2023-02-04T13:08:06.820Z,20.48
2023-02-04T13:10:36.468Z,10.70
2023-02-04T13:13:04.865Z,23.65
2023-02-04T13:15:33.359Z,11.95
2023-02-04T13:18:01.640Z,10.63
2023-02-04T13:20:30.413Z,12.82
2023-02-04T13:22:58.529Z,16.52
2023-02-04T13:25:26.610Z,10.85
2023-02-04T13:27:56.176Z,13.35
2023-02-04T13:30:24.386Z,11.88
2023-02-04T13:32:52.436Z,9.05
2023-02-04T13:35:20.605Z,8.32
2023-02-04T13:37:48.760Z,11.48
2023-02-04T13:40:16.959Z,19.67
2023-02-04T13:42:45.024Z,25.80
2023-02-04T13:45:16.298Z,16.95
2023-02-04T13:47:44.452Z,15.55
2023-02-04T13:50:14.170Z,13.88
2023-02-04T13:52:42.316Z,14.43
2023-02-04T13:55:10.556Z,14.65
2023-02-04T13:57:38.926Z,23.17
2023-02-04T14:00:08.217Z,24.77
2023-02-04T14:02:37.720Z,75.07
2023-02-04T14:05:06.540Z,56.17
2023-02-04T14:07:35.269Z,72.53
2023-02-04T14:10:03.389Z,90.43
2023-02-04T14:12:31.523Z,19.13
2023-02-04T14:14:59.756Z,19.88
2023-02-04T14:17:27.916Z,48.85
2023-02-04T14:19:57.480Z,26.65
2023-02-04T14:22:25.574Z,23.92
2023-02-04T14:24:53.765Z,22.13
2023-02-04T14:27:21.945Z,18.60
2023-02-04T14:29:50.149Z,23.48
2023-02-04T14:32:18.213Z,21.17
2023-02-04T14:34:46.358Z,22.83
2023-02-04T14:37:16.020Z,22.10
2023-02-04T14:39:44.096Z,24.63
2023-02-04T14:42:12.187Z,25.65
2023-02-04T14:44:40.292Z,21.90
2023-02-04T14:47:08.344Z,24.15
2023-02-04T14:49:38.115Z,24.63
2023-02-04T14:52:06.668Z,30.08
2023-02-04T14:54:36.216Z,30.40
2023-02-04T14:57:05.576Z,31.17
2023-02-04T14:59:33.730Z,28.45
2023-02-04T15:02:01.873Z,31.75
2023-02-04T15:04:29.937Z,102.50
2023-02-04T15:06:58.162Z,44.67
2023-02-04T15:09:26.831Z,35.10
2023-02-04T15:11:56.665Z,39.67
2023-02-04T15:14:24.869Z,40.08
2023-02-04T15:16:53.010Z,55.55
2023-02-04T15:19:23.704Z,47.10
2023-02-04T15:21:52.006Z,34.60
2023-02-04T15:24:20.237Z,33.28
2023-02-04T15:26:48.539Z,37.45
2023-02-04T15:29:18.427Z,38.10
2023-02-04T15:31:46.632Z,37.83
2023-02-04T15:34:15.135Z,35.47
2023-02-04T15:36:43.218Z,28.95
2023-02-04T15:39:11.330Z,29.38
2023-02-04T15:41:39.488Z,35.53
2023-02-04T15:44:07.564Z,32.25
2023-02-04T15:46:37.068Z,29.77
2023-02-04T15:49:05.353Z,30.85
2023-02-04T15:51:33.395Z,36.92
2023-02-04T15:54:01.519Z,30.42
2023-02-04T15:56:29.692Z,26.50
2023-02-04T15:58:57.737Z,21.35
2023-02-04T16:01:25.861Z,17.17
2023-02-04T16:03:56.553Z,18.40
2023-02-04T16:06:24.768Z,21.13
2023-02-04T16:08:53.587Z,16.17
2023-02-04T16:11:21.839Z,16.42
2023-02-04T16:13:50.086Z,21.80
2023-02-04T16:16:18.439Z,19.35
2023-02-04T16:18:46.602Z,17.65
2023-02-04T16:21:16.292Z,17.17
2023-02-04T16:23:44.317Z,17.58
2023-02-04T16:26:12.617Z,18.13
2023-02-04T16:28:40.673Z,17.83
2023-02-04T16:31:10.232Z,18.00
2023-02-04T16:33:38.395Z,18.15
2023-02-04T16:36:11.698Z,16.13
2023-02-04T16:38:42.896Z,18.35
2023-02-04T16:41:11.398Z,20.67
2023-02-04T16:43:39.481Z,19.10
2023-02-04T16:46:07.583Z,18.92
2023-02-04T16:48:36.946Z,22.35
2023-02-04T16:51:05.523Z,22.02
2023-02-04T16:53:33.641Z,25.88
2023-02-04T16:56:03.335Z,26.73
2023-02-04T16:58:31.372Z,25.00
2023-02-04T17:00:59.973Z,27.33
2023-02-04T17:03:28.535Z,29.30
2023-02-04T17:05:56.800Z,24.83
2023-02-04T17:08:25.109Z,24.33
2023-02-04T17:11:12.488Z,28.63
2023-02-04T17:13:41.892Z,25.65
2023-02-04T17:16:10.189Z,27.60
2023-02-04T17:18:38.299Z,37.15
2023-02-04T17:21:06.862Z,53.35
2023-02-04T17:23:35.498Z,43.65
2023-02-04T17:26:03.747Z,30.58
2023-02-04T17:28:31.820Z,29.52
2023-02-04T17:31:01.447Z,24.00
2023-02-04T17:33:29.861Z,22.17
2023-02-04T17:35:57.988Z,34.20
2023-02-04T17:38:27.964Z,33.70
2023-02-04T17:40:56.522Z,24.38
2023-02-04T17:43:25.905Z,26.85
2023-02-04T17:45:54.136Z,44.17
2023-02-04T17:48:23.631Z,33.30
2023-02-04T17:50:53.377Z,29.73
2023-02-04T17:53:21.568Z,39.17
2023-02-04T17:55:49.670Z,8.75
2023-02-04T17:58:22.021Z,17.65
2023-02-04T18:00:50.697Z,11.27
2023-02-04T18:03:21.849Z,15.30
2023-02-04T18:05:53.368Z,3.83
2023-02-04T18:08:23.045Z,9.40
2023-02-04T18:10:53.190Z,5.15
2023-02-04T18:13:24.289Z,5.15
2023-02-04T18:15:54.052Z,5.43
2023-02-04T18:18:25.047Z,4.32
2023-02-04T18:21:00.264Z,5.32
2023-02-04T18:23:30.768Z,11.88
2023-02-04T18:26:06.340Z,10.30
2023-02-04T18:28:35.300Z,13.23
2023-02-04T18:31:04.335Z,14.73
2023-02-04T18:33:33.578Z,15.20
2023-02-04T18:36:03.475Z,12.13
2023-02-04T18:38:37.242Z,72.97
2023-02-04T18:41:25.614Z,18.80
2023-02-04T18:44:02.832Z,6.32
2023-02-04T18:46:34.184Z,8.73
2023-02-04T18:49:06.665Z,6.13
2023-02-04T18:51:39.841Z,11.60
2023-02-04T18:54:29.505Z,20.50
2023-02-04T18:57:16.011Z,6.93
2023-02-04T18:59:44.237Z,8.30
2023-02-04T19:02:30.435Z,15.82
2023-02-04T19:05:12.626Z,5.57
2023-02-04T19:07:46.849Z,22.38
2023-02-04T19:10:29.686Z,18.88
2023-02-04T19:13:12.382Z,11.90
2023-02-04T19:15:40.862Z,7.07
2023-02-04T19:18:24.538Z,14.13
2023-02-04T19:20:53.079Z,28.10
2023-02-04T19:23:24.969Z,7.95
2023-02-04T19:25:53.853Z,16.65
2023-02-04T19:28:29.251Z,23.38
2023-02-04T19:31:02.116Z,17.80
2023-02-04T19:33:34.263Z,22.55
2023-02-04T19:36:16.949Z,17.92
2023-02-04T19:38:52.652Z,7.35
2023-02-04T19:41:28.938Z,27.80
2023-02-04T19:44:09.961Z,22.60
2023-02-04T19:46:38.748Z,19.63
2023-02-04T19:49:17.867Z,32.97
2023-02-04T19:51:49.764Z,14.60
2023-02-04T19:54:23.308Z,22.02
2023-02-04T19:56:52.618Z,8.52
2023-02-04T19:59:27.017Z,6.75
2023-02-04T20:02:01.576Z,19.23
2023-02-04T20:04:36.830Z,13.27
2023-02-04T20:07:17.151Z,15.25
2023-02-04T20:09:46.646Z,13.18
2023-02-04T20:12:17.604Z,13.27
2023-02-04T20:14:48.805Z,14.05
2023-02-04T20:17:41.251Z,10.98
2023-02-04T20:20:29.536Z,18.42
2023-02-04T20:22:59.998Z,14.95
2023-02-04T20:25:48.481Z,9.63
2023-02-04T20:28:30.126Z,8.95
2023-02-04T20:31:00.653Z,17.85
2023-02-04T20:33:36.009Z,10.70
2023-02-04T20:36:34.445Z,11.98
2023-02-04T20:39:33.542Z,7.80
2023-02-04T20:42:34.719Z,10.93
2023-02-04T20:45:26.528Z,8.77
2023-02-04T20:48:00.129Z,11.98
2023-02-04T20:50:38.371Z,7.97
2023-02-04T20:53:28.338Z,13.23
2023-02-04T20:56:03.838Z,12.88
2023-02-04T20:58:37.938Z,17.02
2023-02-04T21:01:20.473Z,6.90
2023-02-04T21:03:50.267Z,15.88
2023-02-04T21:06:26.012Z,21.10
2023-02-04T21:08:55.254Z,5.07
2023-02-04T21:11:23.700Z,10.40
2023-02-04T21:13:54.379Z,8.98
2023-02-04T21:16:23.089Z,13.95
2023-02-04T21:18:51.249Z,9.73
2023-02-04T21:21:20.435Z,27.27
2023-02-04T21:23:48.632Z,13.55
2023-02-04T21:26:16.857Z,10.93
2023-02-04T21:28:45.295Z,11.32
2023-02-04T21:31:15.019Z,13.75
2023-02-04T21:33:43.322Z,16.98
2023-02-04T21:36:11.526Z,18.33
2023-02-04T21:38:39.641Z,14.15
2023-02-04T21:41:07.914Z,12.90
2023-02-04T21:43:36.145Z,13.70
2023-02-04T21:46:04.368Z,13.60
2023-02-04T21:48:33.863Z,11.02
2023-02-04T21:51:01.979Z,14.02
2023-02-04T21:53:30.200Z,8.25
2023-02-04T21:55:59.418Z,12.27
2023-02-04T21:58:27.808Z,9.10
2023-02-04T22:00:55.955Z,14.35
2023-02-04T22:03:24.110Z,15.98
2023-02-04T22:05:53.579Z,16.70
2023-02-04T22:08:22.724Z,25.30
2023-02-04T22:10:50.805Z,42.50
2023-02-04T22:13:18.743Z,21.98
2023-02-04T22:15:47.976Z,11.73
2023-02-04T22:18:16.335Z,12.65
2023-02-04T22:20:44.422Z,13.68
2023-02-04T22:23:13.918Z,11.65
2023-02-04T22:25:41.986Z,13.88
2023-02-04T22:28:10.136Z,9.88
2023-02-04T22:30:38.782Z,10.40
2023-02-04T22:33:07.565Z,15.90
2023-02-04T22:35:36.863Z,16.40
2023-02-04T22:38:05.022Z,17.67
2023-02-04T22:40:34.537Z,12.90
2023-02-04T22:43:02.570Z,10.02
2023-02-04T22:45:30.792Z,16.92
2023-02-04T22:47:59.006Z,20.60
2023-02-04T22:50:27.060Z,12.52
2023-02-04T22:52:55.107Z,8.23
2023-02-04T22:55:23.153Z,19.67
2023-02-04T22:57:52.734Z,13.77
2023-02-04T23:00:21.044Z,18.98
2023-02-04T23:02:49.823Z,14.90
2023-02-04T23:05:18.399Z,18.05
2023-02-04T23:07:46.610Z,17.65
2023-02-04T23:10:14.918Z,12.00
2023-02-04T23:12:42.984Z,14.57
2023-02-04T23:15:13.976Z,13.15
2023-02-04T23:17:42.116Z,15.00
2023-02-04T23:20:11.141Z,11.25
2023-02-04T23:22:39.479Z,12.32
2023-02-04T23:25:08.695Z,12.93
2023-02-04T23:27:36.843Z,10.70
2023-02-04T23:30:06.321Z,9.48
2023-02-04T23:32:36.093Z,9.95
2023-02-04T23:35:04.284Z,7.20
2023-02-04T23:37:32.695Z,9.65
2023-02-04T23:40:01.137Z,4.97
2023-02-04T23:42:31.472Z,7.35
2023-02-04T23:44:59.749Z,4.95
2023-02-04T23:47:27.921Z,8.43
2023-02-04T23:49:57.471Z,6.50
2023-02-04T23:52:25.610Z,5.85
2023-02-04T23:54:53.666Z,8.73
2023-02-04T23:57:21.768Z,7.40
2023-02-04T23:59:49.753Z,7.88
